Terminal Aerodrome Forecast
Issued by NWS Sioux Falls, SD

Home | Current Version | Previous Version | Graphics & Text | Print | Product List | Glossary Off
Versions: 1 2 3 4 5 6 7 8 9 10 11 12

818
FTUS43 KFSD 212340
TAFHON
TAF
KHON 212340Z 2200/2224 22005KT P6SM FEW250
     FM220200 32005KT P6SM SCT060
     FM220600 02009KT P6SM FEW200
     FM221000 04007KT P6SM -SHRA VCTS BKN060CB
     FM221400 06007KT P6SM -SHRA OVC060
     FM221700 34006KT P6SM BKN080
     FM222100 29009KT P6SM SCT150=

USA.gov is the U.S. government's official web portal to all federal, state and local government web resources and services.